Time;durP1;ratioP1;P1;durP2;ratioP2;P2;SDS_P1;SDS_P2;PMS_P1;PMS_P2;Temp;Humidity;BMP_temperature;BMP_pressure;BME280_temperature;BME280_humidity;BME280_pressure;Samples;Min_cycle;Max_cycle;Signal;HPM_P1;HPM_P2
2023/08/20 00:00:36;;;;;;;30.35;16.17;;;;;;;;;;5051851;28;20032;-69
2023/08/20 00:03:03;;;;;;;24.58;15.35;;;;;;;;;;5051727;28;20094;-68
2023/08/20 00:05:30;;;;;;;34.20;16.00;;;;;;;;;;5052006;28;20128;-69
2023/08/20 00:07:56;;;;;;;29.23;15.90;;;;;;;;;;5050780;28;20446;-68
2023/08/20 00:10:21;;;;;;;24.58;15.55;;;;;;;;;;5050725;28;20124;-68
2023/08/20 00:12:47;;;;;;;30.52;16.30;;;;;;;;;;5050815;28;20053;-68
2023/08/20 00:15:13;;;;;;;26.48;16.13;;;;;;;;;;5052013;28;20131;-68
2023/08/20 00:17:40;;;;;;;27.08;16.20;;;;;;;;;;5051886;28;20124;-69
2023/08/20 00:20:12;;;;;;;26.25;15.38;;;;;;;;;;5034342;28;20040;-68
2023/08/20 00:22:39;;;;;;;28.40;16.73;;;;;;;;;;5050684;28;20033;-69
2023/08/20 00:25:05;;;;;;;26.63;15.48;;;;;;;;;;5051584;28;20112;-69
2023/08/20 00:27:31;;;;;;;27.00;16.92;;;;;;;;;;5054217;28;20067;-68
2023/08/20 00:29:58;;;;;;;28.75;16.40;;;;;;;;;;5038072;28;20554;-69
2023/08/20 00:32:23;;;;;;;28.08;16.15;;;;;;;;;;5055538;28;20115;-69
2023/08/20 00:34:49;;;;;;;31.15;16.08;;;;;;;;;;5055138;28;20040;-68
2023/08/20 00:37:15;;;;;;;28.92;16.13;;;;;;;;;;5055940;28;20048;-69
2023/08/20 00:39:41;;;;;;;33.47;16.33;;;;;;;;;;5055270;28;20025;-69
2023/08/20 00:42:07;;;;;;;28.27;16.55;;;;;;;;;;5054885;28;20068;-69
2023/08/20 00:44:33;;;;;;;33.58;16.30;;;;;;;;;;5037533;28;20174;-69
2023/08/20 00:47:00;;;;;;;32.65;16.73;;;;;;;;;;5053914;28;20037;-69
2023/08/20 00:49:26;;;;;;;24.33;16.52;;;;;;;;;;5053853;28;20037;-68
2023/08/20 00:51:52;;;;;;;23.77;15.50;;;;;;;;;;5054643;28;20048;-69
2023/08/20 00:54:17;;;;;;;26.70;16.52;;;;;;;;;;5037938;28;20119;-70
2023/08/20 00:56:44;;;;;;;28.65;15.70;;;;;;;;;;5055615;28;20063;-69
2023/08/20 00:59:09;;;;;;;27.02;15.30;;;;;;;;;;5055410;28;20029;-69
2023/08/20 01:01:35;;;;;;;29.33;16.25;;;;;;;;;;5053744;28;20044;-68
2023/08/20 01:04:01;;;;;;;26.90;15.75;;;;;;;;;;5054624;28;20341;-69
2023/08/20 01:06:46;;;;;;;29.30;17.33;;;;;;;;;;5020599;28;20064;-69
2023/08/20 01:09:15;;;;;;;28.88;16.23;;;;;;;;;;5053243;28;20055;-70
2023/08/20 01:11:45;;;;;;;32.10;16.65;;;;;;;;;;5020579;28;20099;-69
2023/08/20 01:14:16;;;;;;;30.98;17.27;;;;;;;;;;5053883;28;20102;-69
2023/08/20 01:16:42;;;;;;;31.13;17.35;;;;;;;;;;5036554;28;20159;-69
2023/08/20 01:19:10;;;;;;;30.20;17.02;;;;;;;;;;5037103;28;20526;-69
2023/08/20 01:21:39;;;;;;;38.10;19.63;;;;;;;;;;5054432;28;20068;-69
2023/08/20 01:24:05;;;;;;;49.55;20.48;;;;;;;;;;5037328;28;20033;-69
2023/08/20 01:26:40;;;;;;;39.65;20.52;;;;;;;;;;5054652;28;20043;-69
2023/08/20 01:29:07;;;;;;;36.47;21.58;;;;;;;;;;5039928;28;20128;-69
2023/08/20 01:31:33;;;;;;;41.38;22.40;;;;;;;;;;5054604;28;20045;-69
2023/08/20 01:33:59;;;;;;;36.65;22.75;;;;;;;;;;5054056;28;20033;-69
2023/08/20 01:36:27;;;;;;;46.13;22.70;;;;;;;;;;5036689;28;20055;-68
2023/08/20 01:38:52;;;;;;;40.58;23.50;;;;;;;;;;5035492;28;20392;-68
2023/08/20 01:41:18;;;;;;;37.72;23.02;;;;;;;;;;5054368;28;20053;-69
2023/08/20 01:43:43;;;;;;;42.38;23.45;;;;;;;;;;5052676;28;20028;-69
2023/08/20 01:46:10;;;;;;;35.33;22.63;;;;;;;;;;5053058;28;20048;-69
2023/08/20 01:48:36;;;;;;;34.55;22.77;;;;;;;;;;5054056;28;20198;-69
2023/08/20 01:51:02;;;;;;;41.47;22.95;;;;;;;;;;5053899;28;20037;-69
2023/08/20 01:53:27;;;;;;;40.22;22.77;;;;;;;;;;5052734;28;20037;-68
2023/08/20 01:55:53;;;;;;;38.83;21.60;;;;;;;;;;5053531;28;20053;-68
2023/08/20 01:58:20;;;;;;;37.25;20.58;;;;;;;;;;5052754;28;20076;-69
2023/08/20 02:00:46;;;;;;;45.83;22.85;;;;;;;;;;5036060;28;20460;-69
2023/08/20 02:03:11;;;;;;;37.03;23.60;;;;;;;;;;5053581;28;20150;-69
2023/08/20 02:05:37;;;;;;;38.85;23.48;;;;;;;;;;5035811;28;20029;-69
2023/08/20 02:08:06;;;;;;;39.08;24.85;;;;;;;;;;5052448;28;20032;-69
2023/08/20 02:10:32;;;;;;;37.75;23.77;;;;;;;;;;5052536;28;20102;-69
2023/08/20 02:12:57;;;;;;;38.45;24.67;;;;;;;;;;5053340;28;20040;-69
2023/08/20 02:15:24;;;;;;;41.22;24.55;;;;;;;;;;5035783;28;20055;-69
2023/08/20 02:17:50;;;;;;;38.25;23.88;;;;;;;;;;5052601;28;20127;-69
2023/08/20 02:20:15;;;;;;;37.10;24.50;;;;;;;;;;5052235;28;20124;-69
2023/08/20 02:22:41;;;;;;;33.08;24.05;;;;;;;;;;5053195;28;20072;-70
2023/08/20 02:25:08;;;;;;;35.28;22.80;;;;;;;;;;5019254;28;20090;-69
2023/08/20 02:27:34;;;;;;;34.28;23.55;;;;;;;;;;5053247;28;20037;-69
2023/08/20 02:29:59;;;;;;;36.35;24.02;;;;;;;;;;5035509;28;20431;-68
2023/08/20 02:32:25;;;;;;;32.15;21.73;;;;;;;;;;5052258;28;20033;-68
2023/08/20 02:34:51;;;;;;;31.77;22.80;;;;;;;;;;5052812;28;20028;-69
2023/08/20 02:37:17;;;;;;;34.83;23.13;;;;;;;;;;5052752;28;20044;-69
2023/08/20 02:39:44;;;;;;;34.78;23.92;;;;;;;;;;5051970;28;20051;-69
2023/08/20 02:42:10;;;;;;;36.30;21.75;;;;;;;;;;5052603;28;20056;-69
2023/08/20 02:44:35;;;;;;;28.80;21.80;;;;;;;;;;5052738;28;20036;-68
2023/08/20 02:47:01;;;;;;;34.50;23.55;;;;;;;;;;5035521;28;20482;-69
2023/08/20 02:49:26;;;;;;;33.45;24.10;;;;;;;;;;5052740;28;20199;-69
2023/08/20 02:51:52;;;;;;;32.85;20.38;;;;;;;;;;5035514;28;20475;-69
2023/08/20 02:54:17;;;;;;;31.45;22.20;;;;;;;;;;5051404;28;20118;-69
2023/08/20 02:56:43;;;;;;;37.50;21.83;;;;;;;;;;5052466;28;20404;-69
2023/08/20 02:59:09;;;;;;;34.22;21.77;;;;;;;;;;5051475;28;20029;-70
2023/08/20 03:01:35;;;;;;;30.17;21.48;;;;;;;;;;5018496;28;20471;-69
2023/08/20 03:04:01;;;;;;;35.88;22.73;;;;;;;;;;5052700;28;20471;-70
2023/08/20 03:06:27;;;;;;;33.72;20.27;;;;;;;;;;5052837;28;20052;-68
2023/08/20 03:08:52;;;;;;;36.47;20.35;;;;;;;;;;5036786;28;20086;-69
2023/08/20 03:11:18;;;;;;;28.88;19.75;;;;;;;;;;5053232;28;20040;-69
2023/08/20 03:13:44;;;;;;;29.15;20.92;;;;;;;;;;5051339;28;20135;-69
2023/08/20 03:16:10;;;;;;;31.98;21.60;;;;;;;;;;5051906;28;20055;-68
2023/08/20 03:18:35;;;;;;;29.52;20.48;;;;;;;;;;5034790;28;20033;-69
2023/08/20 03:21:01;;;;;;;35.97;19.88;;;;;;;;;;5052069;28;20029;-69
2023/08/20 03:23:27;;;;;;;29.60;20.23;;;;;;;;;;5034989;28;20094;-69
2023/08/20 03:25:52;;;;;;;29.58;20.30;;;;;;;;;;5040935;28;20550;-68
2023/08/20 03:28:19;;;;;;;27.13;19.80;;;;;;;;;;5031538;28;20037;-69
2023/08/20 03:30:45;;;;;;;25.23;20.23;;;;;;;;;;5031420;28;20212;-69
2023/08/20 03:33:15;;;;;;;39.53;20.05;;;;;;;;;;5014407;28;20033;-69
2023/08/20 03:35:41;;;;;;;27.48;19.83;;;;;;;;;;5014366;28;20041;-69
2023/08/20 03:38:06;;;;;;;26.02;18.08;;;;;;;;;;5032057;28;20083;-69
2023/08/20 03:40:32;;;;;;;21.42;16.25;;;;;;;;;;5031424;28;20098;-68
2023/08/20 03:42:58;;;;;;;28.30;17.45;;;;;;;;;;5032847;28;20493;-68
2023/08/20 03:45:25;;;;;;;16.83;12.90;;;;;;;;;;5032647;28;20045;-69
2023/08/20 03:47:52;;;;;;;17.42;12.35;;;;;;;;;;5031939;28;20125;-69
2023/08/20 03:50:19;;;;;;;15.65;11.65;;;;;;;;;;5032031;28;20128;-69
2023/08/20 03:52:45;;;;;;;18.50;12.25;;;;;;;;;;5031156;28;20184;-69
2023/08/20 03:55:11;;;;;;;17.48;12.00;;;;;;;;;;5031008;28;20123;-69
2023/08/20 03:57:36;;;;;;;17.67;11.68;;;;;;;;;;5031833;28;20041;-69
2023/08/20 04:00:08;;;;;;;23.30;13.27;;;;;;;;;;5014474;28;20040;-68
2023/08/20 04:02:41;;;;;;;25.67;17.70;;;;;;;;;;5034929;28;20037;-68
2023/08/20 04:05:08;;;;;;;24.77;17.02;;;;;;;;;;5019102;28;20055;-69
2023/08/20 04:07:35;;;;;;;42.30;21.27;;;;;;;;;;5035936;28;20531;-68
2023/08/20 04:10:01;;;;;;;33.72;19.23;;;;;;;;;;5019232;28;20132;-67
2023/08/20 04:12:31;;;;;;;39.75;22.50;;;;;;;;;;5035148;28;20037;-68
2023/08/20 04:14:57;;;;;;;51.20;23.98;;;;;;;;;;5035266;28;20153;-68
2023/08/20 04:17:22;;;;;;;38.50;24.02;;;;;;;;;;5035829;28;20045;-69
2023/08/20 04:19:50;;;;;;;32.83;18.48;;;;;;;;;;5034852;28;20067;-68
2023/08/20 04:22:16;;;;;;;35.95;21.73;;;;;;;;;;5018216;28;20068;-69
2023/08/20 04:24:42;;;;;;;34.72;23.75;;;;;;;;;;5035587;28;20476;-68
2023/08/20 04:27:08;;;;;;;41.33;25.17;;;;;;;;;;5018126;28;20144;-69
2023/08/20 04:29:35;;;;;;;44.92;27.08;;;;;;;;;;5018210;28;20045;-68
2023/08/20 04:32:01;;;;;;;33.35;21.80;;;;;;;;;;5034864;28;20051;-69
2023/08/20 04:34:27;;;;;;;39.67;23.65;;;;;;;;;;5035186;28;20464;-69
2023/08/20 04:36:55;;;;;;;39.45;24.40;;;;;;;;;;5017914;28;20064;-69
2023/08/20 04:39:20;;;;;;;42.42;25.10;;;;;;;;;;5034208;28;20410;-69
2023/08/20 04:41:53;;;;;;;38.92;23.13;;;;;;;;;;5017888;28;20132;-68
2023/08/20 04:44:21;;;;;;;37.50;24.45;;;;;;;;;;5034191;28;20037;-69
2023/08/20 04:46:48;;;;;;;33.90;21.10;;;;;;;;;;5017412;28;20239;-68
2023/08/20 04:49:14;;;;;;;28.75;20.95;;;;;;;;;;5034279;28;20041;-68
2023/08/20 04:51:40;;;;;;;41.47;24.48;;;;;;;;;;5034921;28;20057;-68
2023/08/20 04:54:07;;;;;;;33.38;23.48;;;;;;;;;;5018032;28;20038;-68
2023/08/20 04:56:33;;;;;;;35.30;21.90;;;;;;;;;;5017328;28;20456;-68
2023/08/20 04:58:59;;;;;;;36.22;22.65;;;;;;;;;;5033728;28;20037;-68
2023/08/20 05:01:57;;;;;;;38.78;24.25;;;;;;;;;;5043136;28;20037;-68
2023/08/20 05:04:55;;;;;;;38.10;22.98;;;;;;;;;;5052415;28;20048;-68
2023/08/20 05:07:20;;;;;;;45.53;23.38;;;;;;;;;;5003174;28;20037;-68
2023/08/20 05:09:46;;;;;;;33.13;21.83;;;;;;;;;;5019578;28;20116;-68
2023/08/20 05:12:13;;;;;;;37.22;24.27;;;;;;;;;;5052737;28;20441;-68
2023/08/20 05:14:39;;;;;;;36.40;21.67;;;;;;;;;;5035933;28;20051;-68
2023/08/20 05:17:05;;;;;;;34.78;21.73;;;;;;;;;;5052335;28;20056;-68
2023/08/20 05:19:30;;;;;;;31.45;21.05;;;;;;;;;;5053005;28;20033;-68
2023/08/20 05:21:58;;;;;;;32.28;21.55;;;;;;;;;;5004452;28;20048;-69
2023/08/20 05:24:25;;;;;;;29.85;20.15;;;;;;;;;;5034037;28;20474;-68
2023/08/20 05:27:09;;;;;;;30.45;18.83;;;;;;;;;;5017077;28;20132;-68
2023/08/20 05:29:36;;;;;;;22.08;16.90;;;;;;;;;;5016897;28;20033;-72
2023/08/20 05:32:03;;;;;;;32.10;18.25;;;;;;;;;;5034450;28;20080;-68
2023/08/20 05:34:28;;;;;;;22.52;15.73;;;;;;;;;;5034128;28;20129;-68
2023/08/20 05:36:54;;;;;;;24.08;16.50;;;;;;;;;;5033065;28;20072;-68
2023/08/20 05:39:20;;;;;;;19.98;15.73;;;;;;;;;;5033469;28;20112;-68
2023/08/20 05:41:46;;;;;;;21.80;14.77;;;;;;;;;;5015435;28;20091;-68
2023/08/20 05:44:11;;;;;;;19.35;14.10;;;;;;;;;;5015738;28;20049;-69
2023/08/20 05:46:37;;;;;;;18.67;13.68;;;;;;;;;;5015707;28;20072;-69
2023/08/20 05:49:03;;;;;;;20.40;12.48;;;;;;;;;;5016037;28;20128;-68
2023/08/20 05:51:34;;;;;;;18.02;12.48;;;;;;;;;;4999584;28;20073;-68
2023/08/20 05:54:00;;;;;;;12.70;10.85;;;;;;;;;;5032102;28;20540;-68
2023/08/20 05:56:26;;;;;;;16.20;11.20;;;;;;;;;;5015267;28;20211;-68
2023/08/20 05:58:51;;;;;;;15.07;10.95;;;;;;;;;;5015295;28;20122;-68
2023/08/20 06:01:17;;;;;;;14.50;10.82;;;;;;;;;;5015416;28;20072;-68
2023/08/20 06:03:43;;;;;;;16.75;10.82;;;;;;;;;;4998980;28;20030;-68
2023/08/20 06:06:09;;;;;;;12.38;9.55;;;;;;;;;;5031489;28;20049;-69
2023/08/20 06:08:34;;;;;;;14.30;10.48;;;;;;;;;;5031949;28;20037;-69
2023/08/20 06:11:00;;;;;;;12.77;10.23;;;;;;;;;;5031777;28;20045;-69
2023/08/20 06:13:25;;;;;;;10.75;8.93;;;;;;;;;;5033173;28;20396;-68
2023/08/20 06:15:51;;;;;;;12.93;9.63;;;;;;;;;;5033461;28;20140;-69
2023/08/20 06:18:16;;;;;;;15.68;9.32;;;;;;;;;;5033654;28;20029;-69
2023/08/20 06:20:42;;;;;;;10.35;9.23;;;;;;;;;;5033594;28;20041;-68
2023/08/20 06:23:08;;;;;;;15.45;9.32;;;;;;;;;;5033683;28;20099;-69
2023/08/20 06:25:33;;;;;;;10.27;8.63;;;;;;;;;;5033308;28;20038;-69
2023/08/20 06:27:59;;;;;;;11.85;8.35;;;;;;;;;;5033915;28;20079;-69
2023/08/20 06:30:25;;;;;;;11.80;9.63;;;;;;;;;;5033946;28;20033;-69
2023/08/20 06:32:50;;;;;;;12.60;8.57;;;;;;;;;;5032683;28;20052;-69
2023/08/20 06:35:16;;;;;;;9.57;8.30;;;;;;;;;;5032829;28;20103;-69
2023/08/20 06:37:42;;;;;;;11.95;8.18;;;;;;;;;;5032136;28;20045;-69
2023/08/20 06:40:07;;;;;;;11.88;8.57;;;;;;;;;;5033177;28;20110;-69
2023/08/20 06:42:34;;;;;;;13.02;7.13;;;;;;;;;;5032951;28;20050;-69
2023/08/20 06:44:59;;;;;;;9.13;7.63;;;;;;;;;;5031708;28;20203;-69
2023/08/20 06:47:25;;;;;;;10.80;7.82;;;;;;;;;;5032053;28;20574;-69
2023/08/20 06:49:50;;;;;;;12.27;8.95;;;;;;;;;;5032523;28;20033;-69
2023/08/20 06:52:16;;;;;;;13.18;8.57;;;;;;;;;;5031768;28;20349;-69
2023/08/20 06:54:42;;;;;;;13.70;7.28;;;;;;;;;;5032036;28;20061;-69
2023/08/20 06:57:08;;;;;;;9.52;7.50;;;;;;;;;;5032641;28;20048;-69
2023/08/20 06:59:34;;;;;;;15.63;8.18;;;;;;;;;;5032203;28;20030;-69
2023/08/20 07:01:59;;;;;;;12.88;8.45;;;;;;;;;;5015158;28;20176;-69
2023/08/20 07:04:25;;;;;;;12.50;8.80;;;;;;;;;;5048403;28;20472;-70
2023/08/20 07:06:51;;;;;;;13.75;9.05;;;;;;;;;;5031899;28;20053;-69
2023/08/20 07:09:17;;;;;;;16.52;9.20;;;;;;;;;;5015475;28;20135;-69
2023/08/20 07:11:43;;;;;;;14.73;8.80;;;;;;;;;;5032743;28;20144;-69
2023/08/20 07:14:08;;;;;;;12.80;8.27;;;;;;;;;;5048243;28;20474;-69
2023/08/20 07:16:34;;;;;;;8.68;6.95;;;;;;;;;;5032591;28;20128;-69
2023/08/20 07:19:00;;;;;;;13.40;6.53;;;;;;;;;;5032417;28;20045;-70
2023/08/20 07:21:26;;;;;;;11.52;7.40;;;;;;;;;;5032207;28;20045;-69
2023/08/20 07:23:51;;;;;;;10.52;7.60;;;;;;;;;;5031510;28;20065;-70
2023/08/20 07:26:17;;;;;;;9.73;7.10;;;;;;;;;;5031309;28;20041;-70
2023/08/20 07:28:58;;;;;;;14.05;8.80;;;;;;;;;;5031409;28;20045;-69
2023/08/20 07:31:24;;;;;;;16.33;8.98;;;;;;;;;;5033347;28;20051;-70
2023/08/20 07:33:50;;;;;;;16.83;7.95;;;;;;;;;;5032882;28;20483;-69
2023/08/20 07:36:16;;;;;;;16.05;10.43;;;;;;;;;;5031515;28;20144;-69
2023/08/20 07:38:42;;;;;;;14.82;7.30;;;;;;;;;;5031412;28;20029;-70
2023/08/20 07:41:08;;;;;;;10.38;6.90;;;;;;;;;;5031082;28;20159;-70
2023/08/20 07:43:35;;;;;;;12.70;6.68;;;;;;;;;;5032026;28;20033;-70
2023/08/20 07:46:00;;;;;;;10.70;5.90;;;;;;;;;;5014817;28;20058;-70
2023/08/20 07:48:26;;;;;;;14.23;7.55;;;;;;;;;;5031934;28;20041;-70
2023/08/20 07:50:51;;;;;;;16.17;8.13;;;;;;;;;;5031687;28;20471;-70
2023/08/20 07:53:17;;;;;;;18.48;9.75;;;;;;;;;;5030996;28;20053;-70
2023/08/20 07:55:42;;;;;;;13.57;8.27;;;;;;;;;;5031201;28;20137;-70
2023/08/20 07:58:08;;;;;;;13.18;7.40;;;;;;;;;;5031905;28;20393;-70
2023/08/20 08:00:34;;;;;;;10.75;6.45;;;;;;;;;;5030942;28;20380;-70
2023/08/20 08:02:59;;;;;;;8.13;5.72;;;;;;;;;;5030939;28;20041;-70
2023/08/20 08:05:25;;;;;;;9.20;5.63;;;;;;;;;;5031715;28;20476;-70
2023/08/20 08:07:52;;;;;;;10.43;6.70;;;;;;;;;;5031882;28;20041;-72
2023/08/20 08:10:17;;;;;;;15.57;6.53;;;;;;;;;;5030839;28;20060;-71
2023/08/20 08:12:43;;;;;;;12.80;5.38;;;;;;;;;;5030550;28;20045;-71
2023/08/20 08:15:09;;;;;;;11.48;5.50;;;;;;;;;;5030764;28;20347;-71
2023/08/20 08:17:35;;;;;;;11.35;4.82;;;;;;;;;;5031833;28;20108;-71
2023/08/20 08:20:00;;;;;;;8.70;5.40;;;;;;;;;;5031751;28;20120;-72
2023/08/20 08:22:26;;;;;;;10.93;6.15;;;;;;;;;;5014260;28;20033;-71
2023/08/20 08:24:51;;;;;;;9.65;4.47;;;;;;;;;;5030617;28;20029;-71
2023/08/20 08:27:17;;;;;;;10.23;4.45;;;;;;;;;;5031739;28;20041;-71
2023/08/20 08:29:44;;;;;;;6.18;4.00;;;;;;;;;;5031048;28;20037;-71
2023/08/20 08:32:10;;;;;;;8.05;3.58;;;;;;;;;;5031070;28;20040;-71
2023/08/20 08:34:35;;;;;;;4.88;3.05;;;;;;;;;;5030854;28;20049;-71
2023/08/20 08:37:01;;;;;;;6.10;3.30;;;;;;;;;;5031669;28;20159;-71
2023/08/20 08:39:26;;;;;;;6.90;3.13;;;;;;;;;;5030752;28;20026;-71
2023/08/20 08:41:55;;;;;;;5.07;2.60;;;;;;;;;;5030951;28;20057;-71
2023/08/20 08:44:21;;;;;;;4.50;2.65;;;;;;;;;;5030821;28;20102;-71
2023/08/20 08:46:49;;;;;;;4.80;2.65;;;;;;;;;;5031786;28;20053;-73
2023/08/20 08:49:15;;;;;;;6.65;2.47;;;;;;;;;;5018050;28;20046;-71
2023/08/20 08:51:42;;;;;;;3.45;2.63;;;;;;;;;;5035235;28;20048;-71
2023/08/20 08:54:08;;;;;;;3.97;2.38;;;;;;;;;;5034099;28;20087;-71
2023/08/20 08:56:34;;;;;;;8.57;3.00;;;;;;;;;;5035202;28;20409;-71
2023/08/20 08:59:00;;;;;;;6.57;2.85;;;;;;;;;;5033842;28;20029;-71
2023/08/20 09:01:26;;;;;;;5.97;2.65;;;;;;;;;;5001519;28;20040;-71
2023/08/20 09:03:52;;;;;;;6.55;2.28;;;;;;;;;;5034107;28;20431;-72
2023/08/20 09:06:17;;;;;;;3.80;2.50;;;;;;;;;;5033913;28;20132;-71
2023/08/20 09:08:43;;;;;;;4.10;2.42;;;;;;;;;;5017677;28;20026;-71
2023/08/20 09:11:08;;;;;;;4.88;2.60;;;;;;;;;;5000899;28;20037;-71
2023/08/20 09:13:38;;;;;;;4.72;2.40;;;;;;;;;;5034458;28;20045;-71
2023/08/20 09:16:05;;;;;;;4.15;2.60;;;;;;;;;;5033493;28;20136;-71
2023/08/20 09:18:31;;;;;;;4.75;3.05;;;;;;;;;;5034630;28;20045;-71
2023/08/20 09:20:57;;;;;;;5.20;3.00;;;;;;;;;;5034320;28;20045;-71
2023/08/20 09:23:22;;;;;;;4.00;2.55;;;;;;;;;;5034265;28;20466;-71
2023/08/20 09:25:49;;;;;;;5.78;2.50;;;;;;;;;;5034375;28;20046;-71
2023/08/20 09:28:15;;;;;;;4.70;2.40;;;;;;;;;;5034567;28;20041;-71
2023/08/20 09:30:54;;;;;;;5.63;2.60;;;;;;;;;;5034198;28;20345;-71
2023/08/20 09:33:20;;;;;;;5.25;2.75;;;;;;;;;;5017230;28;20422;-71
2023/08/20 09:35:49;;;;;;;6.60;2.83;;;;;;;;;;5033872;28;20106;-71
2023/08/20 09:38:18;;;;;;;8.90;2.72;;;;;;;;;;5016955;28;20041;-71
2023/08/20 09:40:44;;;;;;;3.95;2.50;;;;;;;;;;5033433;28;20131;-71
2023/08/20 09:43:11;;;;;;;4.82;2.67;;;;;;;;;;5035016;28;20172;-71
2023/08/20 09:45:37;;;;;;;4.82;2.90;;;;;;;;;;5032757;28;20045;-71
2023/08/20 09:48:05;;;;;;;3.97;2.60;;;;;;;;;;5047232;28;20037;-72
2023/08/20 09:50:36;;;;;;;7.97;2.70;;;;;;;;;;5053577;28;20044;-71
2023/08/20 09:53:37;;;;;;;5.53;2.42;;;;;;;;;;5053337;28;20032;-70
2023/08/20 09:56:29;;;;;;;8.02;3.05;;;;;;;;;;5034977;28;20037;-70
2023/08/20 09:58:56;;;;;;;11.10;3.25;;;;;;;;;;5046688;28;20052;-70
2023/08/20 10:01:23;;;;;;;11.52;3.55;;;;;;;;;;5051527;28;20037;-71
2023/08/20 10:03:48;;;;;;;7.60;3.40;;;;;;;;;;5052425;28;20356;-72
2023/08/20 10:06:14;;;;;;;8.13;3.65;;;;;;;;;;5052939;28;20052;-72
2023/08/20 10:08:39;;;;;;;4.68;3.35;;;;;;;;;;5053220;28;20114;-72
2023/08/20 10:11:05;;;;;;;4.90;3.30;;;;;;;;;;5052086;28;20044;-74
2023/08/20 10:13:32;;;;;;;5.80;2.92;;;;;;;;;;5051829;28;20037;-73
2023/08/20 10:15:57;;;;;;;5.20;2.95;;;;;;;;;;5049865;28;20383;-73
2023/08/20 10:18:23;;;;;;;4.45;3.45;;;;;;;;;;5033233;28;20037;-73
2023/08/20 10:20:52;;;;;;;4.90;3.35;;;;;;;;;;5051255;28;20037;-73
2023/08/20 10:23:24;;;;;;;7.17;3.73;;;;;;;;;;5050108;28;20041;-72
2023/08/20 10:25:51;;;;;;;6.65;3.70;;;;;;;;;;5050082;28;20110;-73
2023/08/20 10:28:21;;;;;;;8.82;3.92;;;;;;;;;;5053292;28;20056;-73
2023/08/20 10:31:07;;;;;;;5.70;3.97;;;;;;;;;;5053156;28;20130;-74
2023/08/20 10:33:37;;;;;;;5.95;3.75;;;;;;;;;;5035546;28;20048;-73
2023/08/20 10:36:29;;;;;;;4.45;3.78;;;;;;;;;;5035244;28;20183;-73
2023/08/20 10:38:58;;;;;;;8.43;4.30;;;;;;;;;;5052708;28;20394;-73
2023/08/20 10:41:24;;;;;;;6.13;4.38;;;;;;;;;;5051984;28;20065;-73
2023/08/20 10:43:51;;;;;;;6.18;4.20;;;;;;;;;;5035045;28;20043;-73
2023/08/20 10:46:37;;;;;;;6.10;4.43;;;;;;;;;;5035153;28;20048;-73
2023/08/20 10:49:03;;;;;;;7.70;4.57;;;;;;;;;;5052254;28;20047;-72
2023/08/20 10:51:28;;;;;;;7.72;4.50;;;;;;;;;;5018542;28;20036;-72
2023/08/20 10:54:00;;;;;;;6.03;4.15;;;;;;;;;;5052458;28;20099;-71
2023/08/20 10:56:44;;;;;;;8.05;5.00;;;;;;;;;;5035106;28;20051;-71
2023/08/20 10:59:15;;;;;;;7.72;4.40;;;;;;;;;;5052407;28;20044;-72
2023/08/20 11:01:43;;;;;;;5.53;4.72;;;;;;;;;;5051332;28;20040;-71
2023/08/20 11:04:08;;;;;;;8.23;4.68;;;;;;;;;;5052205;28;20406;-72
2023/08/20 11:06:34;;;;;;;7.13;4.57;;;;;;;;;;5051381;28;20049;-71
2023/08/20 11:09:03;;;;;;;12.30;5.30;;;;;;;;;;5051695;28;20056;-72
2023/08/20 11:11:29;;;;;;;5.97;4.65;;;;;;;;;;5034901;28;20522;-71
2023/08/20 11:13:55;;;;;;;9.23;5.07;;;;;;;;;;5051259;28;20047;-71
2023/08/20 11:16:20;;;;;;;7.13;5.53;;;;;;;;;;5052767;28;20041;-72
2023/08/20 11:18:46;;;;;;;7.05;4.70;;;;;;;;;;5052363;28;20036;-72
2023/08/20 11:21:12;;;;;;;10.73;5.15;;;;;;;;;;5052328;28;20103;-72
2023/08/20 11:23:39;;;;;;;6.40;4.88;;;;;;;;;;5052019;28;20090;-71
2023/08/20 11:26:05;;;;;;;6.38;5.30;;;;;;;;;;5052775;28;20056;-72
2023/08/20 11:28:31;;;;;;;10.15;5.95;;;;;;;;;;5052274;28;20032;-71
2023/08/20 11:30:57;;;;;;;11.45;5.45;;;;;;;;;;5018407;28;20041;-70
2023/08/20 11:33:23;;;;;;;9.98;5.93;;;;;;;;;;5052668;28;20091;-71
2023/08/20 11:35:49;;;;;;;7.40;5.65;;;;;;;;;;5051885;28;20136;-71
2023/08/20 11:38:15;;;;;;;10.30;5.60;;;;;;;;;;5051630;28;20048;-72
2023/08/20 11:40:41;;;;;;;6.18;5.00;;;;;;;;;;5052281;28;20049;-71
2023/08/20 11:43:07;;;;;;;8.05;5.50;;;;;;;;;;5051783;28;20451;-72
2023/08/20 11:45:33;;;;;;;10.77;6.50;;;;;;;;;;5052058;28;20175;-71
2023/08/20 11:48:00;;;;;;;6.72;5.38;;;;;;;;;;5051634;28;20501;-72
2023/08/20 11:50:26;;;;;;;12.93;2.92;;;;;;;;;;5052042;28;20028;-73
2023/08/20 11:52:54;;;;;;;8.57;2.75;;;;;;;;;;5051437;28;20416;-70
2023/08/20 11:55:24;;;;;;;6.38;2.50;;;;;;;;;;5050531;28;20406;-71
2023/08/20 11:57:53;;;;;;;6.90;2.83;;;;;;;;;;5034018;28;20044;-77
2023/08/20 12:00:26;;;;;;;11.13;2.72;;;;;;;;;;5034028;28;20403;-72
2023/08/20 12:02:54;;;;;;;7.38;3.78;;;;;;;;;;5051736;28;20049;-70
2023/08/20 12:05:20;;;;;;;11.05;3.40;;;;;;;;;;5051515;28;20037;-72
2023/08/20 12:07:58;;;;;;;8.82;4.55;;;;;;;;;;5050587;28;20135;-72
2023/08/20 12:10:24;;;;;;;9.05;4.82;;;;;;;;;;5051811;28;20426;-71
2023/08/20 12:12:50;;;;;;;9.40;5.28;;;;;;;;;;5051502;28;20036;-72
2023/08/20 12:15:15;;;;;;;8.05;4.57;;;;;;;;;;5051164;28;20048;-72
2023/08/20 12:17:41;;;;;;;9.27;6.38;;;;;;;;;;5051634;28;20118;-72
2023/08/20 12:20:12;;;;;;;11.82;6.30;;;;;;;;;;5050441;28;20040;-70
2023/08/20 12:22:39;;;;;;;8.52;5.18;;;;;;;;;;5052651;28;20036;-70
2023/08/20 12:25:10;;;;;;;7.03;4.47;;;;;;;;;;5055722;28;20048;-70
2023/08/20 12:27:44;;;;;;;11.15;8.07;;;;;;;;;;5054118;28;20033;-71
2023/08/20 12:30:10;;;;;;;13.52;9.15;;;;;;;;;;5055212;28;20041;-73
2023/08/20 12:32:36;;;;;;;9.63;7.35;;;;;;;;;;5055331;28;20451;-73
2023/08/20 12:35:02;;;;;;;7.60;5.40;;;;;;;;;;5055460;28;20078;-72
2023/08/20 12:37:29;;;;;;;6.28;3.83;;;;;;;;;;5037693;28;20045;-69
2023/08/20 12:39:55;;;;;;;6.20;3.88;;;;;;;;;;5054310;28;20378;-71
2023/08/20 12:42:20;;;;;;;8.57;4.13;;;;;;;;;;5055017;28;20060;-71
2023/08/20 12:44:46;;;;;;;8.57;4.22;;;;;;;;;;5055404;28;20028;-73
2023/08/20 12:47:12;;;;;;;8.40;4.63;;;;;;;;;;5054248;28;20501;-72
2023/08/20 12:49:39;;;;;;;8.93;4.07;;;;;;;;;;5054169;28;20041;-73
2023/08/20 12:52:05;;;;;;;7.85;3.67;;;;;;;;;;5054876;28;20047;-73
2023/08/20 12:54:31;;;;;;;10.13;4.15;;;;;;;;;;5054668;28;20056;-70
2023/08/20 12:56:56;;;;;;;9.20;4.75;;;;;;;;;;5055208;28;20498;-74
2023/08/20 12:59:22;;;;;;;11.05;3.65;;;;;;;;;;5054070;28;20040;-72
2023/08/20 13:01:48;;;;;;;5.63;3.65;;;;;;;;;;5054193;28;20043;-73
2023/08/20 13:04:14;;;;;;;12.35;4.30;;;;;;;;;;5054895;28;20048;-73
2023/08/20 13:06:41;;;;;;;5.65;3.88;;;;;;;;;;5053722;28;20449;-73
2023/08/20 13:09:08;;;;;;;6.75;3.50;;;;;;;;;;5053739;28;20555;-74
2023/08/20 13:11:35;;;;;;;8.63;4.03;;;;;;;;;;5037285;28;20479;-67
2023/08/20 13:14:01;;;;;;;8.68;3.42;;;;;;;;;;5033036;28;20037;-67
2023/08/20 13:16:27;;;;;;;3.95;3.00;;;;;;;;;;5030304;28;20105;-68
2023/08/20 13:18:53;;;;;;;4.45;3.35;;;;;;;;;;5045034;28;20040;-68
2023/08/20 13:21:18;;;;;;;6.32;3.28;;;;;;;;;;5040807;28;20419;-69
2023/08/20 13:23:44;;;;;;;4.97;3.70;;;;;;;;;;5040731;28;20132;-69
2023/08/20 13:26:09;;;;;;;6.03;3.67;;;;;;;;;;5039064;28;20155;-69
2023/08/20 13:28:36;;;;;;;7.82;3.45;;;;;;;;;;5071892;28;20561;-68
2023/08/20 13:31:02;;;;;;;5.68;3.53;;;;;;;;;;5058322;28;20466;-67
2023/08/20 13:33:28;;;;;;;8.70;3.70;;;;;;;;;;5046646;28;20044;-68
2023/08/20 13:35:53;;;;;;;6.70;3.50;;;;;;;;;;5055115;28;20056;-68
2023/08/20 13:38:22;;;;;;;5.65;3.15;;;;;;;;;;5055717;28;20044;-69
2023/08/20 13:40:48;;;;;;;6.82;3.17;;;;;;;;;;5055356;28;20121;-68
2023/08/20 13:43:14;;;;;;;8.32;2.95;;;;;;;;;;5038756;28;20043;-67
2023/08/20 13:45:40;;;;;;;7.03;3.22;;;;;;;;;;5037125;28;20075;-68
2023/08/20 13:48:07;;;;;;;6.10;2.50;;;;;;;;;;5016514;28;20468;-69
2023/08/20 13:50:33;;;;;;;7.63;3.70;;;;;;;;;;5034046;28;20037;-68
2023/08/20 13:52:59;;;;;;;7.32;3.13;;;;;;;;;;5033264;28;20444;-68
2023/08/20 13:55:24;;;;;;;5.38;3.90;;;;;;;;;;5016507;28;20034;-69
2023/08/20 13:57:50;;;;;;;7.03;2.58;;;;;;;;;;5034442;28;20053;-70
2023/08/20 14:00:16;;;;;;;6.53;3.45;;;;;;;;;;5033018;28;20029;-69
2023/08/20 14:02:42;;;;;;;9.00;3.28;;;;;;;;;;5016713;28;20079;-68
2023/08/20 14:05:08;;;;;;;3.60;1.95;;;;;;;;;;5032623;28;20055;-68
2023/08/20 14:07:34;;;;;;;4.53;1.92;;;;;;;;;;5018971;28;20388;-68
2023/08/20 14:10:00;;;;;;;2.40;2.10;;;;;;;;;;5026662;28;20028;-69
2023/08/20 14:12:27;;;;;;;5.97;2.05;;;;;;;;;;5035368;28;20037;-69
2023/08/20 14:14:53;;;;;;;3.67;2.08;;;;;;;;;;5040431;28;20165;-71
2023/08/20 14:17:18;;;;;;;6.93;2.17;;;;;;;;;;5043245;28;20488;-67
2023/08/20 14:19:44;;;;;;;3.30;2.10;;;;;;;;;;5044203;28;20120;-68
2023/08/20 14:22:09;;;;;;;2.65;2.25;;;;;;;;;;5052258;28;20054;-71
2023/08/20 14:24:35;;;;;;;5.30;2.42;;;;;;;;;;5043233;28;20118;-72
2023/08/20 14:27:01;;;;;;;3.47;2.45;;;;;;;;;;5042731;28;20540;-69